Time;durP1;ratioP1;P1;durP2;ratioP2;P2;SDS_P1;SDS_P2;PMS_P1;PMS_P2;Temp;Humidity;BMP_temperature;BMP_pressure;BME280_temperature;BME280_humidity;BME280_pressure;Samples;Min_cycle;Max_cycle;Signal;HPM_P1;HPM_P2
2022/06/12 00:00:23;;;;;;;5.80;3.50;;;19.00;99.90;;;;;;5080369;28;20447;-70
2022/06/12 00:02:50;;;;;;;4.13;3.73;;;18.80;99.90;;;;;;5085305;28;20454;-70
2022/06/12 00:05:21;;;;;;;6.87;3.47;;;18.90;99.90;;;;;;5084833;28;20442;-70
2022/06/12 00:07:47;;;;;;;8.43;3.30;;;18.90;99.90;;;;;;5083231;28;20476;-70
2022/06/12 00:10:15;;;;;;;5.70;3.10;;;18.80;99.90;;;;;;5087873;28;21107;-70
2022/06/12 00:12:43;;;;;;;5.70;3.53;;;18.70;99.90;;;;;;5087911;28;20473;-70
2022/06/12 00:15:13;;;;;;;9.23;3.73;;;18.70;99.90;;;;;;5082262;28;20746;-70
2022/06/12 00:17:41;;;;;;;5.30;3.63;;;18.70;99.90;;;;;;5084293;28;20466;-70
2022/06/12 00:20:09;;;;;;;6.87;4.57;;;18.60;99.90;;;;;;5085054;28;20476;-70
2022/06/12 00:22:38;;;;;;;8.47;3.70;;;18.40;99.90;;;;;;5084355;28;20561;-70
2022/06/12 00:25:06;;;;;;;5.23;3.70;;;18.40;99.90;;;;;;5086428;28;20815;-70
2022/06/12 00:27:33;;;;;;;9.10;4.10;;;18.40;99.90;;;;;;5078629;28;20563;-70
2022/06/12 00:30:00;;;;;;;6.90;4.27;;;18.50;99.90;;;;;;5083114;28;20450;-70
2022/06/12 00:32:29;;;;;;;10.73;3.27;;;18.40;99.90;;;;;;5084440;28;20438;-70
2022/06/12 00:34:56;;;;;;;4.47;3.30;;;18.30;99.90;;;;;;5083855;28;20453;-70
2022/06/12 00:37:26;;;;;;;6.10;3.60;;;18.20;99.90;;;;;;5084179;28;20446;-70
2022/06/12 00:39:56;;;;;;;7.20;4.10;;;18.20;99.90;;;;;;5076907;28;20442;-70
2022/06/12 00:42:26;;;;;;;5.30;3.47;;;18.20;99.90;;;;;;5081328;28;20462;-70
2022/06/12 00:44:55;;;;;;;11.30;3.53;;;18.10;99.90;;;;;;5084270;28;20478;-70
2022/06/12 00:47:24;;;;;;;9.27;4.33;;;18.20;99.90;;;;;;5082227;28;20735;-70
2022/06/12 00:49:55;;;;;;;4.70;4.07;;;18.20;99.90;;;;;;5082828;28;20511;-70
2022/06/12 00:52:28;;;;;;;5.00;4.13;;;18.20;99.90;;;;;;5085153;28;20812;-70
2022/06/12 00:55:00;;;;;;;8.03;3.50;;;18.10;99.90;;;;;;5080678;28;20564;-69
2022/06/12 00:57:29;;;;;;;5.30;3.27;;;18.00;99.90;;;;;;5080842;28;20823;-69
2022/06/12 01:00:00;;;;;;;5.20;2.97;;;17.60;99.90;;;;;;5083229;28;20458;-70
2022/06/12 01:02:31;;;;;;;5.27;3.83;;;17.40;99.90;;;;;;5080451;28;20826;-69
2022/06/12 01:07:46;;;;;;;12.20;3.50;;;17.70;99.90;;;;;;5080539;28;21090;-70
2022/06/12 01:10:17;;;;;;;5.13;3.97;;;17.80;99.90;;;;;;5083917;28;20434;-70
2022/06/12 01:12:49;;;;;;;4.50;3.60;;;17.80;99.90;;;;;;5078935;28;20465;-69
2022/06/12 01:15:19;;;;;;;4.10;3.70;;;17.90;99.90;;;;;;5083806;28;20447;-70
2022/06/12 01:17:47;;;;;;;4.50;3.30;;;17.90;99.90;;;;;;5080878;28;20472;-69
2022/06/12 01:20:17;;;;;;;14.60;4.50;;;17.70;99.90;;;;;;5081525;28;20450;-69
2022/06/12 01:23:08;;;;;;;8.87;4.00;;;17.40;99.90;;;;;;5078168;28;20484;-69
2022/06/12 01:25:51;;;;;;;4.70;4.13;;;17.30;99.90;;;;;;5080426;28;20442;-69
2022/06/12 01:28:44;;;;;;;4.40;4.00;;;17.40;99.90;;;;;;5081649;28;20483;-70
2022/06/12 01:31:35;;;;;;;7.30;4.23;;;17.50;99.90;;;;;;5080500;28;20451;-70
2022/06/12 01:34:14;;;;;;;2.70;2.50;;;17.50;99.90;;;;;;5077702;28;20453;-70
2022/06/12 01:36:49;;;;;;;9.53;4.33;;;17.60;99.90;;;;;;5082824;28;20510;-70
2022/06/12 01:39:29;;;;;;;5.97;3.83;;;17.50;99.90;;;;;;5081562;28;20943;-70
2022/06/12 01:42:07;;;;;;;3.67;2.90;;;17.60;99.90;;;;;;5080596;28;20527;-70
2022/06/12 01:44:43;;;;;;;4.97;3.60;;;17.50;99.90;;;;;;5082886;28;20438;-70
2022/06/12 01:47:20;;;;;;;13.30;3.93;;;17.50;99.90;;;;;;5081031;28;20921;-70
2022/06/12 01:49:55;;;;;;;5.10;4.70;;;17.40;99.90;;;;;;5084599;28;20448;-70
2022/06/12 01:52:30;;;;;;;4.87;4.37;;;17.30;99.90;;;;;;5081596;28;20444;-70
2022/06/12 01:55:06;;;;;;;4.27;3.07;;;17.20;99.90;;;;;;5080189;28;20442;-70
2022/06/12 01:57:38;;;;;;;4.93;3.67;;;16.90;99.90;;;;;;5079645;28;20448;-70
2022/06/12 02:00:13;;;;;;;9.10;4.60;;;16.60;99.90;;;;;;5080691;28;20544;-70
2022/06/12 02:02:44;;;;;;;10.23;4.27;;;16.50;99.90;;;;;;5081568;28;20549;-70
2022/06/12 02:05:17;;;;;;;7.67;4.00;;;16.70;99.90;;;;;;5083334;28;20475;-69
2022/06/12 02:07:48;;;;;;;4.10;3.60;;;16.70;99.90;;;;;;5082777;28;21412;-70
2022/06/12 02:10:22;;;;;;;7.13;4.57;;;16.60;99.90;;;;;;5082554;28;20462;-70
2022/06/12 02:13:13;;;;;;;8.03;4.40;;;16.60;99.90;;;;;;5081634;28;20549;-69
2022/06/12 02:15:48;;;;;;;6.20;4.33;;;16.50;99.90;;;;;;5083011;28;20473;-70
2022/06/12 02:18:22;;;;;;;4.60;3.20;;;16.70;99.90;;;;;;5082061;28;20940;-70
2022/06/12 02:20:58;;;;;;;4.73;3.50;;;16.80;99.90;;;;;;5082323;28;20658;-70
2022/06/12 02:23:30;;;;;;;3.60;2.97;;;16.70;99.90;;;;;;5082824;28;20942;-69
2022/06/12 02:25:58;;;;;;;4.90;3.10;;;16.50;99.90;;;;;;5082920;28;20971;-70
2022/06/12 02:28:30;;;;;;;4.17;3.77;;;16.50;99.90;;;;;;5077395;28;21230;-70
2022/06/12 02:31:05;;;;;;;7.97;3.43;;;16.50;99.90;;;;;;5078286;28;20538;-70
2022/06/12 02:33:37;;;;;;;6.20;3.50;;;16.50;99.90;;;;;;5082069;28;20450;-70
2022/06/12 02:36:10;;;;;;;5.80;4.33;;;16.60;99.90;;;;;;5083631;28;20458;-69
2022/06/12 02:38:41;;;;;;;7.97;4.97;;;16.60;99.90;;;;;;5081463;28;20477;-70
2022/06/12 02:41:13;;;;;;;4.30;3.67;;;16.50;99.90;;;;;;5084290;28;20442;-70
2022/06/12 02:43:44;;;;;;;4.73;3.40;;;16.40;99.90;;;;;;5086229;28;20456;-70
2022/06/12 02:46:16;;;;;;;8.80;4.63;;;16.20;99.90;;;;;;5085143;28;20451;-70
2022/06/12 02:48:44;;;;;;;6.87;4.30;;;16.20;99.90;;;;;;5085830;28;20414;-71
2022/06/12 02:51:17;;;;;;;9.13;3.80;;;16.40;99.90;;;;;;5084249;28;20799;-70
2022/06/12 02:54:00;;;;;;;7.70;4.40;;;16.40;99.90;;;;;;5083889;28;20458;-70
2022/06/12 02:56:38;;;;;;;3.73;3.37;;;16.30;99.90;;;;;;5084457;28;20919;-70
2022/06/12 02:59:16;;;;;;;4.03;3.47;;;16.30;99.90;;;;;;5084415;28;20476;-70
2022/06/12 03:01:50;;;;;;;5.27;4.83;;;16.30;99.90;;;;;;5078737;28;20562;-70
2022/06/12 03:04:25;;;;;;;8.23;4.50;;;16.30;99.90;;;;;;5083026;28;20412;-70
2022/06/12 03:06:52;;;;;;;4.20;3.57;;;16.30;99.90;;;;;;5082339;28;20508;-70
2022/06/12 03:09:19;;;;;;;12.20;4.40;;;16.20;99.90;;;;;;5085612;28;20920;-70
2022/06/12 03:11:48;;;;;;;3.53;3.23;;;16.20;99.90;;;;;;5085928;28;20454;-70
2022/06/12 03:14:19;;;;;;;9.00;3.80;;;16.10;99.90;;;;;;5082271;28;20828;-69
2022/06/12 03:16:47;;;;;;;4.87;3.00;;;15.70;99.90;;;;;;5084671;28;20425;-70
2022/06/12 03:19:18;;;;;;;5.77;4.17;;;15.60;99.90;;;;;;5083341;28;20496;-70
2022/06/12 03:21:51;;;;;;;6.37;3.83;;;15.50;99.90;;;;;;5083075;28;20792;-70
2022/06/12 03:24:53;;;;;;;4.00;3.23;;;15.50;99.90;;;;;;5083018;28;20430;-69
2022/06/12 03:27:56;;;;;;;5.43;3.13;;;15.30;99.90;;;;;;5033011;28;21023;-70
2022/06/12 03:30:31;;;;;;;4.70;3.33;;;15.30;99.90;;;;;;5081719;28;20441;-70
2022/06/12 03:33:10;;;;;;;6.53;4.10;;;15.30;99.90;;;;;;5080672;28;20491;-70
2022/06/12 03:35:46;;;;;;;6.10;3.23;;;15.40;99.90;;;;;;5081607;28;20555;-69
2022/06/12 03:38:21;;;;;;;6.07;4.20;;;15.40;99.90;;;;;;5081440;28;21138;-70
2022/06/12 03:40:56;;;;;;;6.60;3.10;;;15.40;99.90;;;;;;5080889;28;20412;-70
2022/06/12 03:43:31;;;;;;;7.77;3.60;;;15.40;99.90;;;;;;5086028;28;20999;-70
2022/06/12 03:46:05;;;;;;;9.03;3.70;;;15.40;99.90;;;;;;5086699;28;20825;-70
2022/06/12 03:48:38;;;;;;;7.87;3.70;;;15.40;99.90;;;;;;5085221;28;20497;-70
2022/06/12 03:51:14;;;;;;;4.70;3.43;;;15.40;99.90;;;;;;5086096;28;20457;-71
2022/06/12 03:53:45;;;;;;;5.47;3.97;;;15.30;99.90;;;;;;5083632;28;20454;-70
2022/06/12 03:59:26;;;;;;;6.50;4.10;;;15.20;99.90;;;;;;5039497;28;20938;-70
2022/06/12 04:01:54;;;;;;;7.57;3.80;;;15.30;99.90;;;;;;5033023;28;20438;-70
2022/06/12 04:04:25;;;;;;;6.93;3.50;;;15.30;99.90;;;;;;5048920;28;20433;-69
2022/06/12 04:06:54;;;;;;;7.93;3.73;;;15.40;99.90;;;;;;5082225;28;20921;-69
2022/06/12 04:09:25;;;;;;;11.53;4.20;;;15.50;99.90;;;;;;5081187;28;20497;-70
2022/06/12 04:11:55;;;;;;;5.23;4.23;;;15.50;99.90;;;;;;5080398;28;20444;-69
2022/06/12 04:14:27;;;;;;;5.10;3.13;;;15.60;99.90;;;;;;5080748;28;20459;-70
2022/06/12 04:16:57;;;;;;;4.77;3.87;;;15.60;99.90;;;;;;5084732;28;20972;-70
2022/06/12 04:19:27;;;;;;;10.37;4.13;;;15.60;99.90;;;;;;5084095;28;20434;-70
2022/06/12 04:22:01;;;;;;;6.90;3.03;;;15.50;99.90;;;;;;5083700;28;20450;-70
2022/06/12 04:24:35;;;;;;;7.70;3.80;;;15.50;99.90;;;;;;5080795;28;21039;-70
2022/06/12 04:27:08;;;;;;;4.70;4.00;;;15.50;99.90;;;;;;5079647;28;20828;-69
2022/06/12 04:29:38;;;;;;;4.60;3.83;;;15.50;99.90;;;;;;5082301;22;20473;-71
2022/06/12 04:32:08;;;;;;;7.23;3.53;;;15.50;99.90;;;;;;5078056;28;20478;-71
2022/06/12 04:34:39;;;;;;;13.37;4.07;;;15.60;99.90;;;;;;5079983;28;20425;-71
2022/06/12 04:37:13;;;;;;;8.33;3.60;;;15.70;99.90;;;;;;5081008;28;20442;-71
2022/06/12 04:39:41;;;;;;;4.07;3.53;;;15.80;99.90;;;;;;5063531;28;21034;-71
2022/06/12 04:42:08;;;;;;;5.00;3.50;;;15.90;99.90;;;;;;5061099;28;20536;-72
2022/06/12 04:44:36;;;;;;;6.43;4.10;;;16.00;99.90;;;;;;5063512;28;20445;-72
2022/06/12 04:47:05;;;;;;;6.20;3.87;;;16.20;99.90;;;;;;5063303;28;20474;-72
2022/06/12 04:49:35;;;;;;;4.53;3.30;;;16.30;99.90;;;;;;5064556;28;20459;-71
2022/06/12 04:52:06;;;;;;;4.17;3.77;;;16.60;99.90;;;;;;5065611;28;20526;-71
2022/06/12 04:54:33;;;;;;;7.83;4.30;;;16.80;99.90;;;;;;5063977;28;21484;-72
2022/06/12 04:57:00;;;;;;;6.50;3.30;;;16.80;99.90;;;;;;5063994;28;20466;-71
2022/06/12 04:59:28;;;;;;;5.63;3.90;;;16.90;99.90;;;;;;5059507;28;20475;-72
2022/06/12 05:01:56;;;;;;;8.97;4.33;;;17.00;99.90;;;;;;5061155;28;20763;-71
2022/06/12 05:04:26;;;;;;;8.93;4.17;;;17.20;99.90;;;;;;5066618;28;20447;-71
2022/06/12 05:06:53;;;;;;;4.23;3.23;;;17.30;99.90;;;;;;5068620;28;20552;-72
2022/06/12 05:09:24;;;;;;;4.63;3.53;;;17.50;99.90;;;;;;5065294;28;20471;-72
2022/06/12 05:11:51;;;;;;;5.70;3.83;;;17.60;99.90;;;;;;5064677;28;20450;-71
2022/06/12 05:14:18;;;;;;;11.90;5.43;;;17.80;99.90;;;;;;5061667;28;20463;-71
2022/06/12 05:16:49;;;;;;;7.50;3.70;;;17.90;99.90;;;;;;5064883;28;20447;-71
2022/06/12 05:19:18;;;;;;;6.30;4.43;;;18.30;99.90;;;;;;5064445;28;20467;-70
2022/06/12 05:21:45;;;;;;;3.93;3.03;;;18.80;99.90;;;;;;5066814;28;20505;-70
2022/06/12 05:24:13;;;;;;;5.00;2.60;;;19.20;99.90;;;;;;5061955;28;20537;-71
2022/06/12 05:26:43;;;;;;;4.13;2.23;;;19.30;99.90;;;;;;5064581;28;20543;-71
2022/06/12 05:29:14;;;;;;;9.87;3.53;;;19.40;99.90;;;;;;5062350;28;20490;-71
2022/06/12 05:31:41;;;;;;;2.33;2.13;;;19.70;99.90;;;;;;5063799;28;20449;-71
2022/06/12 05:34:08;;;;;;;5.77;1.83;;;20.10;99.90;;;;;;5064626;28;20459;-70
2022/06/12 05:36:36;;;;;;;3.57;1.63;;;20.20;99.90;;;;;;5063525;28;20455;-71
2022/06/12 05:39:03;;;;;;;3.53;2.30;;;20.00;99.90;;;;;;5062536;28;20459;-70
2022/06/12 05:41:30;;;;;;;2.60;1.77;;;20.50;99.90;;;;;;5060500;28;20455;-71
2022/06/12 05:43:58;;;;;;;5.87;2.20;;;21.20;99.90;;;;;;5061691;28;21054;-71
2022/06/12 05:46:25;;;;;;;3.30;1.60;;;21.00;99.90;;;;;;5063913;28;20455;-72
2022/06/12 05:48:52;;;;;;;2.37;2.00;;;21.30;99.90;;;;;;5060085;28;20491;-71
2022/06/12 05:51:20;;;;;;;5.77;1.63;;;21.70;99.90;;;;;;5061251;28;20459;-71
2022/06/12 05:53:47;;;;;;;3.60;1.93;;;21.80;99.90;;;;;;5059933;28;20924;-71
2022/06/12 05:56:17;;;;;;;2.03;1.83;;;22.30;99.90;;;;;;5065086;28;20475;-71
2022/06/12 05:58:45;;;;;;;2.73;2.00;;;22.40;99.90;;;;;;5055957;28;20502;-71
2022/06/12 06:01:17;;;;;;;7.23;2.27;;;22.60;99.90;;;;;;5056385;28;20461;-71
2022/06/12 06:03:44;;;;;;;5.13;1.50;;;22.40;99.90;;;;;;5057422;28;20469;-71
2022/06/12 06:06:16;;;;;;;3.13;1.50;;;22.20;99.90;;;;;;5067952;28;20801;-71
2022/06/12 06:08:44;;;;;;;4.00;2.17;;;22.10;99.90;;;;;;5067651;28;20578;-72
2022/06/12 06:11:11;;;;;;;2.63;1.90;;;21.90;99.90;;;;;;5065101;28;20438;-71
2022/06/12 06:13:38;;;;;;;1.70;1.50;;;22.00;99.90;;;;;;5061846;28;20439;-72
2022/06/12 06:16:07;;;;;;;5.57;1.40;;;22.50;99.90;;;;;;5066189;28;20878;-72
2022/06/12 06:18:35;;;;;;;2.90;1.63;;;22.60;99.90;;;;;;5068098;28;20864;-72
2022/06/12 06:21:02;;;;;;;2.43;1.60;;;22.40;99.90;;;;;;5068742;28;20946;-72
2022/06/12 06:23:28;;;;;;;1.70;1.30;;;22.20;99.90;;;;;;5063989;28;20998;-71
2022/06/12 06:25:55;;;;;;;2.63;1.80;;;22.10;99.90;;;;;;5069997;28;20450;-72
2022/06/12 06:28:22;;;;;;;7.57;1.80;;;22.00;99.90;;;;;;5065516;28;20486;-72
2022/06/12 06:30:49;;;;;;;3.47;1.40;;;22.10;99.90;;;;;;5064498;28;20443;-72
2022/06/12 06:33:16;;;;;;;4.03;1.50;;;22.30;99.90;;;;;;5061607;28;20899;-72
2022/06/12 06:35:44;;;;;;;5.63;1.50;;;22.40;99.90;;;;;;5065650;28;20447;-71
2022/06/12 06:38:11;;;;;;;6.27;1.40;;;22.90;99.90;;;;;;5068014;28;20436;-71
2022/06/12 06:40:38;;;;;;;2.80;1.50;;;23.10;99.90;;;;;;5066462;28;20465;-72
2022/06/12 06:43:06;;;;;;;3.23;1.77;;;23.30;99.90;;;;;;5066219;28;20468;-71
2022/06/12 06:48:17;;;;;;;3.00;1.43;;;23.50;99.90;;;;;;5068995;28;20489;-72
2022/06/12 06:50:45;;;;;;;3.93;1.20;;;23.70;99.90;;;;;;5061231;28;20459;-72
2022/06/12 06:53:13;;;;;;;1.93;1.60;;;22.80;99.90;;;;;;5070519;28;20473;-71
2022/06/12 06:55:41;;;;;;;5.90;1.97;;;23.00;99.90;;;;;;5066597;28;20543;-72
2022/06/12 06:58:10;;;;;;;6.27;1.77;;;23.70;99.90;;;;;;5067848;28;20446;-72
2022/06/12 07:00:39;;;;;;;4.93;1.97;;;23.90;99.90;;;;;;5063343;28;20463;-72
2022/06/12 07:03:07;;;;;;;4.00;1.43;;;24.00;99.90;;;;;;5069741;28;20446;-72
2022/06/12 07:05:34;;;;;;;2.30;1.57;;;24.50;99.90;;;;;;5066664;28;20529;-72
2022/06/12 07:08:03;;;;;;;3.47;1.87;;;24.40;99.90;;;;;;5064157;28;20562;-72
2022/06/12 07:10:32;;;;;;;4.00;2.30;;;24.60;99.90;;;;;;5064062;28;20439;-72
2022/06/12 07:13:00;;;;;;;6.17;2.03;;;24.80;99.90;;;;;;5059819;28;20452;-71
2022/06/12 07:15:29;;;;;;;34.80;2.43;;;25.80;99.90;;;;;;5064548;28;20451;-71
2022/06/12 07:17:57;;;;;;;3.90;2.00;;;25.30;99.90;;;;;;5064430;28;20457;-71
2022/06/12 07:20:27;;;;;;;4.40;1.53;;;25.40;99.90;;;;;;5066012;28;20902;-71
2022/06/12 07:22:54;;;;;;;5.90;1.83;;;25.70;99.90;;;;;;5064817;28;20940;-71
2022/06/12 07:25:22;;;;;;;3.70;1.57;;;26.00;99.10;;;;;;5066028;28;20466;-72
2022/06/12 07:27:49;;;;;;;6.40;2.50;;;26.00;99.90;;;;;;5064451;28;20491;-71
2022/06/12 07:30:19;;;;;;;7.80;2.70;;;26.30;98.90;;;;;;5063547;28;20979;-71
2022/06/12 07:32:46;;;;;;;4.53;1.70;;;26.50;98.40;;;;;;5064903;28;20463;-71
2022/06/12 07:35:13;;;;;;;4.93;2.50;;;26.20;98.40;;;;;;5063794;28;20534;-71
2022/06/12 07:37:41;;;;;;;4.00;2.00;;;26.00;98.80;;;;;;5066297;28;20448;-71
2022/06/12 07:40:14;;;;;;;6.67;2.13;;;25.60;99.00;;;;;;5064535;28;20476;-71
2022/06/12 07:42:43;;;;;;;4.30;2.20;;;26.20;98.50;;;;;;5067866;28;20486;-72
2022/06/12 07:45:11;;;;;;;8.40;2.50;;;26.70;98.20;;;;;;5065729;28;20444;-72
2022/06/12 07:47:38;;;;;;;5.50;2.23;;;26.80;98.90;;;;;;5063277;28;20435;-71
2022/06/12 07:50:06;;;;;;;5.10;2.53;;;27.40;97.20;;;;;;5063061;28;21013;-70
2022/06/12 07:52:33;;;;;;;9.73;2.20;;;28.00;95.70;;;;;;5065282;28;20892;-70
2022/06/12 07:55:00;;;;;;;6.03;1.80;;;27.50;95.70;;;;;;5061687;28;20685;-70
2022/06/12 07:57:27;;;;;;;6.90;1.90;;;27.70;94.80;;;;;;5065598;28;20440;-69
2022/06/12 07:59:55;;;;;;;9.53;2.43;;;28.00;93.70;;;;;;5066351;28;20483;-70
2022/06/12 08:02:22;;;;;;;6.83;1.90;;;27.20;95.30;;;;;;5063880;28;20462;-70
2022/06/12 08:04:49;;;;;;;2.73;2.07;;;27.70;95.20;;;;;;5066330;28;20451;-70
2022/06/12 08:07:16;;;;;;;9.27;2.10;;;28.10;93.20;;;;;;5064571;28;20439;-70
2022/06/12 08:09:42;;;;;;;7.83;3.00;;;27.60;94.20;;;;;;5063517;28;20500;-70
2022/06/12 08:12:10;;;;;;;6.03;2.10;;;27.80;94.30;;;;;;5068474;28;20447;-70
2022/06/12 08:14:37;;;;;;;3.77;2.27;;;28.40;94.00;;;;;;5062605;28;20468;-70
2022/06/12 08:17:06;;;;;;;4.17;2.20;;;28.80;92.20;;;;;;5066289;28;20478;-70
2022/06/12 08:22:18;;;;;;;7.30;2.37;;;29.00;90.00;;;;;;5063716;28;20496;-71
2022/06/12 08:24:44;;;;;;;14.63;2.60;;;28.50;87.10;;;;;;5063057;28;20816;-70
2022/06/12 08:27:12;;;;;;;6.33;2.07;;;27.90;88.30;;;;;;5065234;28;20855;-70
2022/06/12 08:29:39;;;;;;;4.37;2.23;;;28.00;86.20;;;;;;5059196;28;20866;-71
2022/06/12 08:32:13;;;;;;;5.07;2.13;;;28.40;85.50;;;;;;5065512;28;20474;-71
2022/06/12 08:34:45;;;;;;;4.10;2.17;;;28.00;85.50;;;;;;5065533;28;20999;-72
2022/06/12 08:37:15;;;;;;;3.10;1.87;;;27.10;88.00;;;;;;5061392;28;20451;-71
2022/06/12 08:39:42;;;;;;;7.07;2.57;;;27.20;86.50;;;;;;5063283;28;20513;-71
2022/06/12 08:42:13;;;;;;;6.00;1.63;;;27.80;90.00;;;;;;5064706;28;20449;-71
2022/06/12 08:44:49;;;;;;;2.73;1.60;;;28.10;83.40;;;;;;5066241;28;20552;-70
2022/06/12 08:47:21;;;;;;;3.40;2.27;;;28.10;83.50;;;;;;5065503;28;20565;-71
2022/06/12 08:49:55;;;;;;;1.97;1.80;;;27.50;82.70;;;;;;5065227;28;20556;-72
2022/06/12 08:52:27;;;;;;;4.80;1.77;;;27.80;83.30;;;;;;5059873;28;20485;-71
2022/06/12 08:55:01;;;;;;;2.40;2.10;;;28.10;85.50;;;;;;5063620;28;20440;-71
2022/06/12 08:57:35;;;;;;;3.83;2.10;;;28.50;84.70;;;;;;5063981;28;20438;-71
2022/06/12 09:00:09;;;;;;;3.53;2.40;;;28.90;82.50;;;;;;5061908;28;21008;-71
2022/06/12 09:02:40;;;;;;;5.73;2.30;;;28.60;82.40;;;;;;5061747;28;20502;-71
2022/06/12 09:05:11;;;;;;;6.20;2.10;;;28.50;80.20;;;;;;5053883;28;20492;-72
2022/06/12 09:07:45;;;;;;;3.00;1.70;;;28.70;79.80;;;;;;5062070;28;20546;-72
2022/06/12 09:10:21;;;;;;;2.53;1.60;;;29.20;79.10;;;;;;5057635;28;20487;-71
2022/06/12 09:12:52;;;;;;;3.40;2.00;;;28.60;76.90;;;;;;5060497;28;20464;-71
2022/06/12 09:15:41;;;;;;;4.23;2.03;;;29.30;74.10;;;;;;5061558;28;21136;-71
2022/06/12 09:18:17;;;;;;;6.50;1.97;;;28.60;74.10;;;;;;5063578;28;20459;-71
2022/06/12 09:20:50;;;;;;;2.33;1.63;;;28.90;73.10;;;;;;5056833;28;20466;-71
2022/06/12 09:23:29;;;;;;;8.63;2.10;;;29.90;69.80;;;;;;5064395;28;20542;-71
2022/06/12 09:26:01;;;;;;;9.00;1.83;;;30.40;69.60;;;;;;5063727;28;20464;-71
2022/06/12 09:28:38;;;;;;;5.77;1.63;;;30.60;68.40;;;;;;5063163;28;20487;-71
2022/06/12 09:31:12;;;;;;;4.70;2.03;;;30.50;68.30;;;;;;5062321;28;20512;-70
2022/06/12 09:33:52;;;;;;;3.17;1.10;;;30.50;67.40;;;;;;5060638;28;20471;-72
2022/06/12 09:36:36;;;;;;;5.63;2.13;;;30.20;68.50;;;;;;5059649;28;20674;-71
2022/06/12 09:39:08;;;;;;;3.97;1.50;;;30.70;69.40;;;;;;5062561;28;20468;-70
2022/06/12 09:41:46;;;;;;;4.27;1.90;;;31.50;61.80;;;;;;5060237;28;20435;-70
2022/06/12 09:44:18;;;;;;;7.10;1.60;;;31.80;57.10;;;;;;5059527;28;20482;-71
2022/06/12 09:46:58;;;;;;;2.30;1.20;;;31.80;55.50;;;;;;5061981;28;20451;-71
2022/06/12 09:49:34;;;;;;;2.37;1.23;;;31.30;54.20;;;;;;5060491;28;20616;-71
2022/06/12 09:52:33;;;;;;;6.80;2.53;;;31.10;54.10;;;;;;5057937;28;20465;-71
2022/06/12 09:55:04;;;;;;;2.03;1.23;;;31.20;55.10;;;;;;5045450;28;20455;-71
2022/06/12 09:57:39;;;;;;;2.53;1.20;;;31.10;52.90;;;;;;5063490;28;20535;-71
2022/06/12 10:00:12;;;;;;;1.80;1.10;;;31.40;52.40;;;;;;5058390;28;20547;-72
2022/06/12 10:02:46;;;;;;;2.50;1.30;;;31.10;53.00;;;;;;5063155;28;20439;-71
2022/06/12 10:05:23;;;;;;;1.20;0.93;;;31.20;54.40;;;;;;5061698;28;20981;-71
2022/06/12 10:07:55;;;;;;;4.17;1.37;;;31.10;54.30;;;;;;5063244;28;20456;-71
2022/06/12 10:10:28;;;;;;;3.10;1.40;;;31.30;53.00;;;;;;5063206;28;20534;-70
2022/06/12 10:13:00;;;;;;;2.63;1.77;;;30.50;53.50;;;;;;5058665;28;20715;-70
2022/06/12 10:15:31;;;;;;;2.70;1.60;;;30.60;55.20;;;;;;5062058;28;20447;-70
2022/06/12 10:18:03;;;;;;;12.77;1.80;;;30.90;55.60;;;;;;5061200;28;21803;-70
2022/06/12 10:20:35;;;;;;;3.00;1.20;;;30.70;52.20;;;;;;5060220;28;20539;-72
2022/06/12 10:23:02;;;;;;;3.10;1.50;;;31.50;53.50;;;;;;5059731;28;20451;-72
2022/06/12 10:25:33;;;;;;;2.53;1.50;;;32.40;54.20;;;;;;5062398;28;20445;-71
2022/06/12 10:28:03;;;;;;;4.50;1.70;;;32.50;52.10;;;;;;5062453;28;20507;-72
2022/06/12 10:30:36;;;;;;;1.97;1.20;;;32.40;53.60;;;;;;5076084;22;20498;-70
2022/06/12 10:33:20;;;;;;;1.90;1.33;;;33.00;53.20;;;;;;5079692;28;20449;-70
2022/06/12 10:35:52;;;;;;;6.20;1.33;;;33.10;52.50;;;;;;5077954;28;20441;-69
2022/06/12 10:38:20;;;;;;;3.77;1.57;;;33.30;52.70;;;;;;5077643;28;20442;-70
2022/06/12 10:40:50;;;;;;;5.77;2.50;;;32.70;52.10;;;;;;5079511;28;20481;-70
2022/06/12 10:43:29;;;;;;;2.37;1.30;;;32.10;53.10;;;;;;5077976;28;20459;-69
2022/06/12 10:46:01;;;;;;;7.73;2.40;;;31.50;54.20;;;;;;5080880;28;20454;-70
2022/06/12 10:48:30;;;;;;;5.30;2.10;;;31.50;53.80;;;;;;5083246;28;20932;-70
2022/06/12 10:51:01;;;;;;;2.60;1.50;;;32.30;53.10;;;;;;5084191;28;20459;-70
2022/06/12 10:53:29;;;;;;;3.80;1.20;;;32.30;52.10;;;;;;5083744;28;20534;-70
2022/06/12 10:56:01;;;;;;;3.23;1.37;;;32.80;52.60;;;;;;5081752;28;20479;-70
2022/06/12 10:58:53;;;;;;;5.40;2.13;;;32.30;53.30;;;;;;5085749;28;20469;-70
2022/06/12 11:01:28;;;;;;;3.77;1.40;;;31.30;53.70;;;;;;5077560;28;20476;-70
2022/06/12 11:04:04;;;;;;;1.47;1.37;;;32.00;54.30;;;;;;5080684;28;20877;-70
2022/06/12 11:06:40;;;;;;;6.27;2.20;;;31.40;52.80;;;;;;5079045;28;20466;-70
2022/06/12 11:09:19;;;;;;;3.50;1.60;;;30.50;53.80;;;;;;5080234;28;20492;-70
2022/06/12 11:12:02;;;;;;;2.40;1.40;;;31.80;54.30;;;;;;5080612;28;20848;-70
2022/06/12 11:14:47;;;;;;;3.03;1.03;;;33.30;52.60;;;;;;5073168;28;20462;-70
2022/06/12 11:17:26;;;;;;;3.27;1.60;;;32.80;52.30;;;;;;5082547;28;20974;-70
2022/06/12 11:20:04;;;;;;;7.53;2.87;;;33.70;51.20;;;;;;5079294;28;20454;-70
2022/06/12 11:22:43;;;;;;;3.80;2.13;;;33.70;51.60;;;;;;5082048;28;20534;-70
2022/06/12 11:25:29;;;;;;;2.90;1.73;;;32.90;52.40;;;;;;5083494;28;20442;-70
2022/06/12 11:28:06;;;;;;;4.70;1.93;;;32.90;51.70;;;;;;5079871;28;20801;-70
2022/06/12 11:30:47;;;;;;;6.70;2.30;;;33.10;50.60;;;;;;5077780;28;20486;-70
2022/06/12 11:33:38;;;;;;;7.60;1.70;;;33.20;52.40;;;;;;5082118;28;20956;-70
2022/06/12 11:36:12;;;;;;;5.57;1.87;;;32.80;54.20;;;;;;5080081;28;20533;-70
2022/06/12 11:38:57;;;;;;;5.70;1.80;;;32.70;53.00;;;;;;5078505;28;20939;-69
2022/06/12 11:41:40;;;;;;;3.27;1.53;;;32.40;53.90;;;;;;5080578;28;20511;-70
2022/06/12 11:44:21;;;;;;;5.83;2.27;;;30.70;53.00;;;;;;5080901;28;20818;-70
2022/06/12 11:46:57;;;;;;;4.20;1.60;;;29.80;55.20;;;;;;5079904;28;20460;-70
2022/06/12 11:49:33;;;;;;;3.73;1.90;;;30.80;55.20;;;;;;5083313;28;20485;-70
2022/06/12 11:52:13;;;;;;;3.60;2.00;;;31.70;52.90;;;;;;5080503;28;20466;-70
2022/06/12 11:55:02;;;;;;;6.97;2.00;;;32.40;53.70;;;;;;5080185;28;20442;-70
2022/06/12 11:57:38;;;;;;;5.30;1.83;;;32.60;53.00;;;;;;5079052;28;20451;-69
2022/06/12 12:00:09;;;;;;;3.93;2.40;;;31.80;53.40;;;;;;5081176;28;21170;-70
2022/06/12 12:02:46;;;;;;;7.83;3.47;;;30.20;54.30;;;;;;5082766;28;20441;-70
2022/06/12 12:05:50;;;;;;;7.30;2.13;;;29.00;55.50;;;;;;5083324;28;20784;-69
2022/06/12 12:08:44;;;;;;;2.63;2.10;;;28.30;57.80;;;;;;5042194;28;20487;-69
2022/06/12 12:11:18;;;;;;;5.90;2.43;;;28.10;56.30;;;;;;5040884;28;20503;-70
2022/06/12 12:13:48;;;;;;;6.00;1.70;;;28.40;57.90;;;;;;5069130;28;20433;-71
2022/06/12 12:16:25;;;;;;;7.17;1.83;;;29.00;55.60;;;;;;5079052;28;20560;-70
2022/06/12 12:18:54;;;;;;;7.10;1.87;;;29.90;56.90;;;;;;5080292;28;20445;-70
2022/06/12 12:21:28;;;;;;;2.90;2.20;;;30.20;55.00;;;;;;5083884;28;20978;-70
2022/06/12 12:23:56;;;;;;;2.10;1.50;;;29.90;54.90;;;;;;5081613;28;20678;-70
2022/06/12 12:26:31;;;;;;;3.10;1.80;;;30.60;55.30;;;;;;5080528;28;20453;-71
2022/06/12 12:29:01;;;;;;;8.23;2.00;;;31.90;55.30;;;;;;5081015;28;20540;-71
2022/06/12 12:31:29;;;;;;;2.87;1.40;;;32.90;53.70;;;;;;5079267;28;20486;-70
2022/06/12 12:33:58;;;;;;;3.23;1.60;;;32.00;55.10;;;;;;5079831;28;20481;-70
2022/06/12 12:42:21;;;;;;;2.20;1.50;;;32.10;57.10;;;;;;5082576;28;20456;-71
2022/06/12 12:44:49;;;;;;;8.07;2.73;;;32.00;55.70;;;;;;5080900;28;20537;-70
2022/06/12 12:47:21;;;;;;;4.63;2.27;;;31.00;56.70;;;;;;5080572;28;20450;-71
2022/06/12 12:50:00;;;;;;;2.30;1.90;;;30.30;58.20;;;;;;5077808;28;20492;-71
2022/06/12 12:52:27;;;;;;;4.40;2.07;;;30.40;57.30;;;;;;5080177;28;20879;-70
2022/06/12 12:54:56;;;;;;;6.13;2.07;;;30.00;56.40;;;;;;5078372;28;20443;-70
2022/06/12 12:57:36;;;;;;;2.53;1.83;;;30.50;59.10;;;;;;5082521;28;21299;-71
2022/06/12 13:00:07;;;;;;;3.10;2.00;;;30.20;55.60;;;;;;5073004;28;20502;-71
2022/06/12 13:02:41;;;;;;;4.47;2.00;;;29.30;56.90;;;;;;5081649;28;20442;-70
2022/06/12 13:05:17;;;;;;;2.70;1.80;;;29.50;57.50;;;;;;5075677;28;20470;-71
2022/06/12 13:08:12;;;;;;;5.00;1.80;;;29.70;56.40;;;;;;5082503;28;20462;-71
2022/06/12 13:11:09;;;;;;;4.23;2.10;;;30.00;56.80;;;;;;5080380;28;20666;-71
2022/06/12 13:14:12;;;;;;;3.47;1.87;;;29.80;55.80;;;;;;5064276;28;20586;-70
2022/06/12 13:16:56;;;;;;;8.60;2.33;;;28.20;58.10;;;;;;5082627;28;20953;-70
2022/06/12 13:19:43;;;;;;;2.43;1.80;;;27.40;59.70;;;;;;5078964;28;20473;-70
2022/06/12 13:22:23;;;;;;;2.83;1.33;;;27.20;62.90;;;;;;5079445;28;20458;-70
2022/06/12 13:24:53;;;;;;;9.03;2.67;;;27.90;62.20;;;;;;5076787;28;20481;-71
2022/06/12 13:27:22;;;;;;;10.67;2.37;;;29.20;64.40;;;;;;5075624;28;20507;-71
2022/06/12 13:29:53;;;;;;;3.57;2.13;;;29.50;60.80;;;;;;5076377;28;20474;-71